sensor_id;sensor_type;location;lat;lon;timestamp;P1;durP1;ratioP1;P2;durP2;ratioP2
35462;SDS011;21578;47.892;9.970;2022-10-16T00:03:01;16.13;;;10.27;;
35462;SDS011;21578;47.892;9.970;2022-10-16T00:07:48;12.30;;;7.33;;
35462;SDS011;21578;47.892;9.970;2022-10-16T00:12:35;7.40;;;5.10;;
35462;SDS011;21578;47.892;9.970;2022-10-16T00:17:23;9.93;;;7.47;;
35462;SDS011;21578;47.892;9.970;2022-10-16T00:22:10;6.07;;;4.83;;
35462;SDS011;21578;47.892;9.970;2022-10-16T00:26:57;5.43;;;4.13;;
35462;SDS011;21578;47.892;9.970;2022-10-16T00:31:44;3.10;;;2.40;;
35462;SDS011;21578;47.892;9.970;2022-10-16T00:36:32;2.20;;;1.37;;
35462;SDS011;21578;47.892;9.970;2022-10-16T00:41:20;5.13;;;4.60;;
35462;SDS011;21578;47.892;9.970;2022-10-16T00:46:13;2.30;;;2.20;;
35462;SDS011;21578;47.892;9.970;2022-10-16T00:51:02;2.90;;;2.63;;
35462;SDS011;21578;47.892;9.970;2022-10-16T00:55:52;2.20;;;2.00;;
35462;SDS011;21578;47.892;9.970;2022-10-16T01:00:39;1.40;;;1.30;;
35462;SDS011;21578;47.892;9.970;2022-10-16T01:05:27;0.80;;;0.80;;
35462;SDS011;21578;47.892;9.970;2022-10-16T01:10:23;2.20;;;1.40;;
35462;SDS011;21578;47.892;9.970;2022-10-16T01:15:17;6.13;;;5.53;;
35462;SDS011;21578;47.892;9.970;2022-10-16T01:20:11;4.73;;;3.93;;
35462;SDS011;21578;47.892;9.970;2022-10-16T01:25:03;2.63;;;2.20;;
35462;SDS011;21578;47.892;9.970;2022-10-16T01:29:58;3.17;;;1.70;;
35462;SDS011;21578;47.892;9.970;2022-10-16T01:34:56;1.70;;;1.00;;
35462;SDS011;21578;47.892;9.970;2022-10-16T01:39:48;2.80;;;1.10;;
35462;SDS011;21578;47.892;9.970;2022-10-16T01:44:40;1.47;;;1.03;;
35462;SDS011;21578;47.892;9.970;2022-10-16T01:55:16;0.50;;;0.50;;
35462;SDS011;21578;47.892;9.970;2022-10-16T02:00:07;1.70;;;0.90;;
35462;SDS011;21578;47.892;9.970;2022-10-16T02:04:58;1.70;;;1.20;;
35462;SDS011;21578;47.892;9.970;2022-10-16T02:09:49;1.00;;;1.00;;
35462;SDS011;21578;47.892;9.970;2022-10-16T02:14:38;1.90;;;1.80;;
35462;SDS011;21578;47.892;9.970;2022-10-16T02:19:25;0.97;;;0.97;;
35462;SDS011;21578;47.892;9.970;2022-10-16T02:24:14;0.87;;;0.80;;
35462;SDS011;21578;47.892;9.970;2022-10-16T02:29:06;0.60;;;0.60;;
35462;SDS011;21578;47.892;9.970;2022-10-16T02:34:03;2.23;;;1.30;;
35462;SDS011;21578;47.892;9.970;2022-10-16T02:38:51;1.20;;;1.20;;
35462;SDS011;21578;47.892;9.970;2022-10-16T02:43:38;2.93;;;2.27;;
35462;SDS011;21578;47.892;9.970;2022-10-16T02:48:25;5.40;;;4.80;;
35462;SDS011;21578;47.892;9.970;2022-10-16T02:53:14;2.20;;;2.00;;
35462;SDS011;21578;47.892;9.970;2022-10-16T02:58:00;2.30;;;1.83;;
35462;SDS011;21578;47.892;9.970;2022-10-16T03:02:47;2.00;;;0.77;;
35462;SDS011;21578;47.892;9.970;2022-10-16T03:07:37;1.07;;;0.40;;
35462;SDS011;21578;47.892;9.970;2022-10-16T03:12:25;0.73;;;0.60;;
35462;SDS011;21578;47.892;9.970;2022-10-16T03:17:12;2.90;;;0.50;;
35462;SDS011;21578;47.892;9.970;2022-10-16T03:22:02;2.27;;;2.07;;
35462;SDS011;21578;47.892;9.970;2022-10-16T03:26:49;2.33;;;2.00;;
35462;SDS011;21578;47.892;9.970;2022-10-16T03:31:37;1.63;;;1.53;;
35462;SDS011;21578;47.892;9.970;2022-10-16T03:36:24;7.97;;;7.27;;
35462;SDS011;21578;47.892;9.970;2022-10-16T03:41:11;3.10;;;2.90;;
35462;SDS011;21578;47.892;9.970;2022-10-16T03:45:58;2.10;;;1.60;;
35462;SDS011;21578;47.892;9.970;2022-10-16T03:50:47;0.80;;;0.80;;
35462;SDS011;21578;47.892;9.970;2022-10-16T03:55:35;0.70;;;0.70;;
35462;SDS011;21578;47.892;9.970;2022-10-16T04:00:22;1.13;;;0.57;;
35462;SDS011;21578;47.892;9.970;2022-10-16T04:05:09;1.43;;;1.20;;
35462;SDS011;21578;47.892;9.970;2022-10-16T04:09:58;0.60;;;0.60;;
35462;SDS011;21578;47.892;9.970;2022-10-16T04:14:45;2.10;;;1.00;;
35462;SDS011;21578;47.892;9.970;2022-10-16T04:19:32;1.60;;;0.40;;
35462;SDS011;21578;47.892;9.970;2022-10-16T04:24:19;78.63;;;34.50;;
35462;SDS011;21578;47.892;9.970;2022-10-16T04:29:07;143.43;;;75.87;;
35462;SDS011;21578;47.892;9.970;2022-10-16T04:33:54;472.00;;;239.87;;
35462;SDS011;21578;47.892;9.970;2022-10-16T04:38:41;333.80;;;176.60;;
35462;SDS011;21578;47.892;9.970;2022-10-16T04:43:28;193.67;;;106.03;;
35462;SDS011;21578;47.892;9.970;2022-10-16T04:48:16;204.63;;;112.83;;
35462;SDS011;21578;47.892;9.970;2022-10-16T04:53:03;68.53;;;40.77;;
35462;SDS011;21578;47.892;9.970;2022-10-16T04:57:50;60.50;;;35.43;;
35462;SDS011;21578;47.892;9.970;2022-10-16T05:02:37;241.23;;;141.17;;
35462;SDS011;21578;47.892;9.970;2022-10-16T05:07:28;74.20;;;43.70;;
35462;SDS011;21578;47.892;9.970;2022-10-16T05:12:17;129.67;;;68.80;;
35462;SDS011;21578;47.892;9.970;2022-10-16T05:17:04;83.47;;;44.43;;
35462;SDS011;21578;47.892;9.970;2022-10-16T05:21:51;56.67;;;32.90;;
35462;SDS011;21578;47.892;9.970;2022-10-16T05:26:39;63.47;;;38.20;;
35462;SDS011;21578;47.892;9.970;2022-10-16T05:31:26;20.37;;;12.63;;
35462;SDS011;21578;47.892;9.970;2022-10-16T05:36:13;14.33;;;10.10;;
35462;SDS011;21578;47.892;9.970;2022-10-16T05:41:00;28.70;;;17.57;;
35462;SDS011;21578;47.892;9.970;2022-10-16T05:45:55;31.37;;;17.20;;
35462;SDS011;21578;47.892;9.970;2022-10-16T05:50:42;58.80;;;33.27;;
35462;SDS011;21578;47.892;9.970;2022-10-16T05:55:29;293.87;;;143.07;;
35462;SDS011;21578;47.892;9.970;2022-10-16T06:00:16;56.20;;;28.10;;
35462;SDS011;21578;47.892;9.970;2022-10-16T06:05:05;22.03;;;12.13;;
35462;SDS011;21578;47.892;9.970;2022-10-16T06:09:52;256.93;;;103.67;;
35462;SDS011;21578;47.892;9.970;2022-10-16T06:14:39;595.37;;;317.97;;
35462;SDS011;21578;47.892;9.970;2022-10-16T06:19:26;327.13;;;168.97;;
35462;SDS011;21578;47.892;9.970;2022-10-16T06:24:15;162.20;;;87.23;;
35462;SDS011;21578;47.892;9.970;2022-10-16T06:29:02;325.27;;;181.13;;
35462;SDS011;21578;47.892;9.970;2022-10-16T06:33:50;111.17;;;60.50;;
35462;SDS011;21578;47.892;9.970;2022-10-16T06:38:37;52.10;;;29.67;;
35462;SDS011;21578;47.892;9.970;2022-10-16T06:43:26;47.10;;;23.50;;
35462;SDS011;21578;47.892;9.970;2022-10-16T06:48:17;41.83;;;23.67;;
35462;SDS011;21578;47.892;9.970;2022-10-16T06:53:04;8.73;;;6.03;;
35462;SDS011;21578;47.892;9.970;2022-10-16T06:57:51;9.17;;;6.20;;
35462;SDS011;21578;47.892;9.970;2022-10-16T07:02:39;12.33;;;8.33;;
35462;SDS011;21578;47.892;9.970;2022-10-16T07:07:26;8.80;;;5.87;;
35462;SDS011;21578;47.892;9.970;2022-10-16T07:12:16;3.03;;;2.47;;
35462;SDS011;21578;47.892;9.970;2022-10-16T07:17:03;16.57;;;10.10;;
35462;SDS011;21578;47.892;9.970;2022-10-16T07:21:52;5.13;;;2.87;;
35462;SDS011;21578;47.892;9.970;2022-10-16T07:26:39;4.27;;;3.20;;
35462;SDS011;21578;47.892;9.970;2022-10-16T07:31:26;3.07;;;2.30;;
35462;SDS011;21578;47.892;9.970;2022-10-16T07:36:14;4.20;;;1.73;;
35462;SDS011;21578;47.892;9.970;2022-10-16T07:41:03;2.03;;;1.30;;
35462;SDS011;21578;47.892;9.970;2022-10-16T07:45:56;2.83;;;2.00;;
35462;SDS011;21578;47.892;9.970;2022-10-16T07:50:43;2.43;;;1.93;;
35462;SDS011;21578;47.892;9.970;2022-10-16T07:55:31;9.20;;;6.00;;
35462;SDS011;21578;47.892;9.970;2022-10-16T08:00:33;3.93;;;3.20;;
35462;SDS011;21578;47.892;9.970;2022-10-16T08:05:22;0.63;;;0.60;;
35462;SDS011;21578;47.892;9.970;2022-10-16T08:10:10;1.40;;;0.53;;
35462;SDS011;21578;47.892;9.970;2022-10-16T08:15:02;0.83;;;0.47;;
35462;SDS011;21578;47.892;9.970;2022-10-16T08:19:51;2.23;;;0.60;;
35462;SDS011;21578;47.892;9.970;2022-10-16T08:24:38;3.00;;;0.83;;
35462;SDS011;21578;47.892;9.970;2022-10-16T08:29:25;1.07;;;0.40;;
35462;SDS011;21578;47.892;9.970;2022-10-16T08:34:12;0.80;;;0.30;;
35462;SDS011;21578;47.892;9.970;2022-10-16T08:39:00;0.40;;;0.40;;
35462;SDS011;21578;47.892;9.970;2022-10-16T08:43:55;2.33;;;0.50;;
35462;SDS011;21578;47.892;9.970;2022-10-16T08:49:00;2.10;;;0.70;;
35462;SDS011;21578;47.892;9.970;2022-10-16T08:53:52;0.40;;;0.40;;
35462;SDS011;21578;47.892;9.970;2022-10-16T08:58:42;21.80;;;14.23;;
35462;SDS011;21578;47.892;9.970;2022-10-16T09:03:45;52.90;;;28.17;;
35462;SDS011;21578;47.892;9.970;2022-10-16T09:08:45;53.57;;;36.23;;
35462;SDS011;21578;47.892;9.970;2022-10-16T09:13:46;1.13;;;1.10;;
35462;SDS011;21578;47.892;9.970;2022-10-16T09:18:39;0.70;;;0.60;;
35462;SDS011;21578;47.892;9.970;2022-10-16T09:23:33;1.47;;;1.37;;
35462;SDS011;21578;47.892;9.970;2022-10-16T09:28:22;3.27;;;2.93;;
35462;SDS011;21578;47.892;9.970;2022-10-16T09:33:10;3.20;;;2.70;;
35462;SDS011;21578;47.892;9.970;2022-10-16T09:37:59;7.83;;;6.60;;
35462;SDS011;21578;47.892;9.970;2022-10-16T09:42:46;0.80;;;0.80;;
35462;SDS011;21578;47.892;9.970;2022-10-16T09:47:35;5.17;;;0.67;;
35462;SDS011;21578;47.892;9.970;2022-10-16T09:52:29;1.30;;;0.40;;
35462;SDS011;21578;47.892;9.970;2022-10-16T09:57:16;1.57;;;0.50;;
35462;SDS011;21578;47.892;9.970;2022-10-16T10:02:04;1.90;;;0.57;;
35462;SDS011;21578;47.892;9.970;2022-10-16T10:07:00;1.23;;;0.40;;
35462;SDS011;21578;47.892;9.970;2022-10-16T10:11:50;3.20;;;0.50;;
35462;SDS011;21578;47.892;9.970;2022-10-16T10:16:38;3.10;;;0.57;;
35462;SDS011;21578;47.892;9.970;2022-10-16T10:21:25;1.67;;;1.00;;
35462;SDS011;21578;47.892;9.970;2022-10-16T10:26:13;0.43;;;0.43;;
35462;SDS011;21578;47.892;9.970;2022-10-16T10:31:06;0.43;;;0.43;;
35462;SDS011;21578;47.892;9.970;2022-10-16T10:36:02;3.00;;;0.50;;
35462;SDS011;21578;47.892;9.970;2022-10-16T10:41:13;1.53;;;0.50;;
35462;SDS011;21578;47.892;9.970;2022-10-16T10:46:15;0.50;;;0.40;;
35462;SDS011;21578;47.892;9.970;2022-10-16T10:51:10;2.40;;;0.90;;
35462;SDS011;21578;47.892;9.970;2022-10-16T10:56:10;1.43;;;0.50;;
35462;SDS011;21578;47.892;9.970;2022-10-16T11:01:04;3.07;;;1.03;;
35462;SDS011;21578;47.892;9.970;2022-10-16T11:05:57;1.70;;;0.67;;
35462;SDS011;21578;47.892;9.970;2022-10-16T11:10:50;2.27;;;0.50;;
35462;SDS011;21578;47.892;9.970;2022-10-16T11:15:39;0.63;;;0.50;;
35462;SDS011;21578;47.892;9.970;2022-10-16T11:20:28;1.37;;;0.50;;
35462;SDS011;21578;47.892;9.970;2022-10-16T11:25:20;1.80;;;0.50;;
35462;SDS011;21578;47.892;9.970;2022-10-16T11:30:12;0.90;;;0.50;;
35462;SDS011;21578;47.892;9.970;2022-10-16T11:35:02;2.20;;;1.10;;
35462;SDS011;21578;47.892;9.970;2022-10-16T11:39:58;1.23;;;0.60;;
35462;SDS011;21578;47.892;9.970;2022-10-16T11:45:00;2.60;;;2.40;;
35462;SDS011;21578;47.892;9.970;2022-10-16T11:49:56;0.67;;;0.40;;
35462;SDS011;21578;47.892;9.970;2022-10-16T11:54:47;1.13;;;0.30;;
35462;SDS011;21578;47.892;9.970;2022-10-16T11:59:40;1.43;;;0.30;;
35462;SDS011;21578;47.892;9.970;2022-10-16T12:04:33;0.60;;;0.40;;
35462;SDS011;21578;47.892;9.970;2022-10-16T12:09:31;0.67;;;0.30;;
35462;SDS011;21578;47.892;9.970;2022-10-16T12:14:22;0.50;;;0.40;;
35462;SDS011;21578;47.892;9.970;2022-10-16T12:19:25;1.23;;;0.40;;
35462;SDS011;21578;47.892;9.970;2022-10-16T12:24:29;0.73;;;0.40;;
35462;SDS011;21578;47.892;9.970;2022-10-16T12:29:22;0.87;;;0.87;;
35462;SDS011;21578;47.892;9.970;2022-10-16T12:34:20;0.40;;;0.20;;
35462;SDS011;21578;47.892;9.970;2022-10-16T12:39:16;0.30;;;0.27;;
35462;SDS011;21578;47.892;9.970;2022-10-16T12:44:21;0.70;;;0.33;;
35462;SDS011;21578;47.892;9.970;2022-10-16T12:49:21;0.40;;;0.40;;
35462;SDS011;21578;47.892;9.970;2022-10-16T12:54:16;0.40;;;0.40;;
35462;SDS011;21578;47.892;9.970;2022-10-16T12:59:07;1.80;;;0.20;;
35462;SDS011;21578;47.892;9.970;2022-10-16T13:04:08;1.43;;;1.20;;
35462;SDS011;21578;47.892;9.970;2022-10-16T13:09:17;0.60;;;0.40;;
35462;SDS011;21578;47.892;9.970;2022-10-16T13:14:29;0.67;;;0.33;;
35462;SDS011;21578;47.892;9.970;2022-10-16T13:19:32;1.10;;;0.53;;
35462;SDS011;21578;47.892;9.970;2022-10-16T13:24:29;0.30;;;0.30;;
35462;SDS011;21578;47.892;9.970;2022-10-16T13:29:29;1.00;;;0.30;;
35462;SDS011;21578;47.892;9.970;2022-10-16T13:34:18;0.37;;;0.27;;
35462;SDS011;21578;47.892;9.970;2022-10-16T13:39:11;0.30;;;0.30;;
35462;SDS011;21578;47.892;9.970;2022-10-16T13:44:02;0.83;;;0.30;;
35462;SDS011;21578;47.892;9.970;2022-10-16T13:48:56;0.63;;;0.30;;
35462;SDS011;21578;47.892;9.970;2022-10-16T13:53:44;0.93;;;0.40;;
35462;SDS011;21578;47.892;9.970;2022-10-16T13:58:33;0.93;;;0.30;;
35462;SDS011;21578;47.892;9.970;2022-10-16T14:03:20;0.40;;;0.30;;
35462;SDS011;21578;47.892;9.970;2022-10-16T14:08:09;0.97;;;0.80;;
35462;SDS011;21578;47.892;9.970;2022-10-16T14:12:58;1.70;;;0.40;;
35462;SDS011;21578;47.892;9.970;2022-10-16T14:17:50;0.50;;;0.33;;
35462;SDS011;21578;47.892;9.970;2022-10-16T14:22:38;2.20;;;0.40;;
35462;SDS011;21578;47.892;9.970;2022-10-16T14:27:29;1.43;;;0.47;;
35462;SDS011;21578;47.892;9.970;2022-10-16T14:32:21;0.33;;;0.30;;
35462;SDS011;21578;47.892;9.970;2022-10-16T14:37:18;0.37;;;0.30;;
35462;SDS011;21578;47.892;9.970;2022-10-16T14:42:11;0.40;;;0.40;;
35462;SDS011;21578;47.892;9.970;2022-10-16T14:47:07;0.87;;;0.50;;
35462;SDS011;21578;47.892;9.970;2022-10-16T14:52:10;0.30;;;0.30;;
35462;SDS011;21578;47.892;9.970;2022-10-16T14:56:59;2.13;;;0.40;;
35462;SDS011;21578;47.892;9.970;2022-10-16T15:01:46;1.70;;;0.60;;
35462;SDS011;21578;47.892;9.970;2022-10-16T15:06:33;1.43;;;0.50;;
35462;SDS011;21578;47.892;9.970;2022-10-16T15:11:20;1.90;;;1.00;;
35462;SDS011;21578;47.892;9.970;2022-10-16T15:16:09;1.10;;;0.50;;
35462;SDS011;21578;47.892;9.970;2022-10-16T15:20:58;1.93;;;0.73;;
35462;SDS011;21578;47.892;9.970;2022-10-16T15:25:45;2.17;;;0.60;;
35462;SDS011;21578;47.892;9.970;2022-10-16T15:30:33;1.43;;;0.57;;
35462;SDS011;21578;47.892;9.970;2022-10-16T15:35:22;1.13;;;0.50;;
35462;SDS011;21578;47.892;9.970;2022-10-16T15:40:10;2.40;;;0.60;;
35462;SDS011;21578;47.892;9.970;2022-10-16T15:44:57;0.90;;;0.40;;
35462;SDS011;21578;47.892;9.970;2022-10-16T15:49:44;0.70;;;0.53;;
35462;SDS011;21578;47.892;9.970;2022-10-16T15:54:32;0.60;;;0.60;;
35462;SDS011;21578;47.892;9.970;2022-10-16T15:59:19;0.87;;;0.60;;
35462;SDS011;21578;47.892;9.970;2022-10-16T16:04:06;2.17;;;0.50;;
35462;SDS011;21578;47.892;9.970;2022-10-16T16:08:53;1.70;;;0.70;;
35462;SDS011;21578;47.892;9.970;2022-10-16T16:13:41;3.33;;;2.10;;
35462;SDS011;21578;47.892;9.970;2022-10-16T16:18:28;2.57;;;0.70;;
35462;SDS011;21578;47.892;9.970;2022-10-16T16:23:15;6.97;;;0.60;;
35462;SDS011;21578;47.892;9.970;2022-10-16T16:28:02;3.47;;;1.87;;
35462;SDS011;21578;47.892;9.970;2022-10-16T16:32:50;2.10;;;0.60;;
35462;SDS011;21578;47.892;9.970;2022-10-16T16:37:37;3.23;;;0.53;;
35462;SDS011;21578;47.892;9.970;2022-10-16T16:42:25;0.93;;;0.57;;
35462;SDS011;21578;47.892;9.970;2022-10-16T16:47:13;0.73;;;0.40;;
35462;SDS011;21578;47.892;9.970;2022-10-16T16:52:01;0.40;;;0.40;;
35462;SDS011;21578;47.892;9.970;2022-10-16T16:56:48;2.57;;;0.60;;
35462;SDS011;21578;47.892;9.970;2022-10-16T17:01:35;2.03;;;0.60;;
35462;SDS011;21578;47.892;9.970;2022-10-16T17:06:23;4.47;;;0.60;;
35462;SDS011;21578;47.892;9.970;2022-10-16T17:11:19;2.50;;;0.60;;
35462;SDS011;21578;47.892;9.970;2022-10-16T17:16:07;2.33;;;0.50;;
35462;SDS011;21578;47.892;9.970;2022-10-16T17:20:54;1.60;;;1.00;;
35462;SDS011;21578;47.892;9.970;2022-10-16T17:25:48;3.63;;;2.87;;
35462;SDS011;21578;47.892;9.970;2022-10-16T17:30:36;5.17;;;1.57;;
35462;SDS011;21578;47.892;9.970;2022-10-16T17:35:23;1.40;;;1.30;;
35462;SDS011;21578;47.892;9.970;2022-10-16T17:40:13;2.37;;;0.60;;
35462;SDS011;21578;47.892;9.970;2022-10-16T17:45:00;1.87;;;0.60;;
35462;SDS011;21578;47.892;9.970;2022-10-16T17:49:54;3.07;;;0.70;;
35462;SDS011;21578;47.892;9.970;2022-10-16T17:55:05;2.80;;;0.70;;
35462;SDS011;21578;47.892;9.970;2022-10-16T17:59:53;1.93;;;0.90;;
35462;SDS011;21578;47.892;9.970;2022-10-16T18:04:40;1.00;;;0.53;;
35462;SDS011;21578;47.892;9.970;2022-10-16T18:09:29;0.50;;;0.40;;
35462;SDS011;21578;47.892;9.970;2022-10-16T18:14:16;4.00;;;2.30;;
35462;SDS011;21578;47.892;9.970;2022-10-16T18:19:03;1.10;;;0.97;;
35462;SDS011;21578;47.892;9.970;2022-10-16T18:23:50;2.00;;;0.60;;
35462;SDS011;21578;47.892;9.970;2022-10-16T18:28:38;3.47;;;0.70;;
35462;SDS011;21578;47.892;9.970;2022-10-16T18:33:26;0.70;;;0.70;;
35462;SDS011;21578;47.892;9.970;2022-10-16T18:38:14;1.67;;;0.60;;
35462;SDS011;21578;47.892;9.970;2022-10-16T18:43:01;0.70;;;0.70;;
35462;SDS011;21578;47.892;9.970;2022-10-16T18:47:50;1.63;;;0.63;;
35462;SDS011;21578;47.892;9.970;2022-10-16T18:52:37;1.37;;;0.50;;
35462;SDS011;21578;47.892;9.970;2022-10-16T18:57:26;0.50;;;0.50;;
35462;SDS011;21578;47.892;9.970;2022-10-16T19:02:14;1.07;;;0.70;;
35462;SDS011;21578;47.892;9.970;2022-10-16T19:07:02;1.97;;;0.80;;
35462;SDS011;21578;47.892;9.970;2022-10-16T19:11:49;4.43;;;1.70;;
35462;SDS011;21578;47.892;9.970;2022-10-16T19:16:37;1.60;;;0.50;;
35462;SDS011;21578;47.892;9.970;2022-10-16T19:21:27;0.50;;;0.50;;
35462;SDS011;21578;47.892;9.970;2022-10-16T19:26:16;2.40;;;0.40;;
35462;SDS011;21578;47.892;9.970;2022-10-16T19:31:04;0.40;;;0.40;;
35462;SDS011;21578;47.892;9.970;2022-10-16T19:35:52;0.67;;;0.60;;
35462;SDS011;21578;47.892;9.970;2022-10-16T19:40:39;2.10;;;1.00;;
35462;SDS011;21578;47.892;9.970;2022-10-16T19:45:28;4.67;;;3.70;;
35462;SDS011;21578;47.892;9.970;2022-10-16T19:50:20;2.03;;;0.90;;
35462;SDS011;21578;47.892;9.970;2022-10-16T19:55:07;0.80;;;0.53;;
35462;SDS011;21578;47.892;9.970;2022-10-16T19:59:54;0.73;;;0.60;;
35462;SDS011;21578;47.892;9.970;2022-10-16T20:04:43;2.30;;;0.47;;
35462;SDS011;21578;47.892;9.970;2022-10-16T20:09:31;0.90;;;0.50;;
35462;SDS011;21578;47.892;9.970;2022-10-16T20:14:19;0.90;;;0.50;;
35462;SDS011;21578;47.892;9.970;2022-10-16T20:19:06;0.83;;;0.50;;
35462;SDS011;21578;47.892;9.970;2022-10-16T20:23:54;0.97;;;0.40;;
35462;SDS011;21578;47.892;9.970;2022-10-16T20:28:42;2.63;;;0.43;;
35462;SDS011;21578;47.892;9.970;2022-10-16T20:33:29;1.57;;;0.60;;
35462;SDS011;21578;47.892;9.970;2022-10-16T20:38:17;0.40;;;0.40;;
35462;SDS011;21578;47.892;9.970;2022-10-16T20:43:06;0.87;;;0.50;;
35462;SDS011;21578;47.892;9.970;2022-10-16T20:47:55;1.27;;;0.40;;
35462;SDS011;21578;47.892;9.970;2022-10-16T20:52:42;2.17;;;0.67;;
35462;SDS011;21578;47.892;9.970;2022-10-16T20:57:29;1.07;;;0.60;;
35462;SDS011;21578;47.892;9.970;2022-10-16T21:02:17;1.30;;;0.70;;
35462;SDS011;21578;47.892;9.970;2022-10-16T21:07:04;1.00;;;0.93;;
35462;SDS011;21578;47.892;9.970;2022-10-16T21:11:51;1.70;;;1.03;;
35462;SDS011;21578;47.892;9.970;2022-10-16T21:16:38;1.00;;;0.90;;
35462;SDS011;21578;47.892;9.970;2022-10-16T21:21:26;1.07;;;0.90;;
35462;SDS011;21578;47.892;9.970;2022-10-16T21:26:15;2.67;;;0.90;;
35462;SDS011;21578;47.892;9.970;2022-10-16T21:31:09;1.53;;;0.90;;
35462;SDS011;21578;47.892;9.970;2022-10-16T21:35:57;3.30;;;0.80;;
35462;SDS011;21578;47.892;9.970;2022-10-16T21:40:47;1.43;;;0.63;;
35462;SDS011;21578;47.892;9.970;2022-10-16T21:45:33;1.33;;;0.80;;
35462;SDS011;21578;47.892;9.970;2022-10-16T21:50:20;1.37;;;1.10;;
35462;SDS011;21578;47.892;9.970;2022-10-16T21:55:08;3.00;;;1.90;;
35462;SDS011;21578;47.892;9.970;2022-10-16T21:59:56;1.97;;;1.50;;
35462;SDS011;21578;47.892;9.970;2022-10-16T22:04:46;2.30;;;1.80;;
35462;SDS011;21578;47.892;9.970;2022-10-16T22:09:33;1.93;;;1.83;;
35462;SDS011;21578;47.892;9.970;2022-10-16T22:14:20;1.60;;;1.50;;
35462;SDS011;21578;47.892;9.970;2022-10-16T22:19:08;2.27;;;1.63;;
35462;SDS011;21578;47.892;9.970;2022-10-16T22:23:56;1.63;;;1.53;;
35462;SDS011;21578;47.892;9.970;2022-10-16T22:28:46;1.90;;;1.80;;
35462;SDS011;21578;47.892;9.970;2022-10-16T22:33:33;4.83;;;1.77;;
35462;SDS011;21578;47.892;9.970;2022-10-16T22:38:22;1.57;;;1.47;;
35462;SDS011;21578;47.892;9.970;2022-10-16T22:43:09;1.70;;;1.60;;
35462;SDS011;21578;47.892;9.970;2022-10-16T22:47:56;1.77;;;1.50;;
35462;SDS011;21578;47.892;9.970;2022-10-16T22:52:43;2.40;;;1.63;;
35462;SDS011;21578;47.892;9.970;2022-10-16T22:57:31;1.53;;;1.43;;
35462;SDS011;21578;47.892;9.970;2022-10-16T23:02:18;5.37;;;1.40;;
35462;SDS011;21578;47.892;9.970;2022-10-16T23:07:05;1.77;;;1.50;;
35462;SDS011;21578;47.892;9.970;2022-10-16T23:12:13;1.83;;;1.50;;
35462;SDS011;21578;47.892;9.970;2022-10-16T23:17:01;2.00;;;1.80;;
35462;SDS011;21578;47.892;9.970;2022-10-16T23:21:48;2.53;;;1.40;;
35462;SDS011;21578;47.892;9.970;2022-10-16T23:26:35;3.30;;;1.77;;
35462;SDS011;21578;47.892;9.970;2022-10-16T23:31:22;1.67;;;1.30;;
35462;SDS011;21578;47.892;9.970;2022-10-16T23:36:11;1.77;;;1.30;;
35462;SDS011;21578;47.892;9.970;2022-10-16T23:41:00;1.43;;;1.33;;
35462;SDS011;21578;47.892;9.970;2022-10-16T23:45:47;3.00;;;1.30;;
35462;SDS011;21578;47.892;9.970;2022-10-16T23:50:34;2.13;;;1.50;;
35462;SDS011;21578;47.892;9.970;2022-10-16T23:55:22;1.60;;;1.50;;
